createdAt,value
2023-05-25T00:01:49.404Z,4.77
2023-05-25T00:04:19.621Z,5.00
2023-05-25T00:06:47.758Z,5.23
2023-05-25T00:09:15.617Z,5.03
2023-05-25T00:11:43.134Z,4.60
2023-05-25T00:14:10.957Z,5.40
2023-05-25T00:16:40.860Z,5.97
2023-05-25T00:19:10.862Z,6.70
2023-05-25T00:21:38.735Z,6.10
2023-05-25T00:24:06.714Z,7.07
2023-05-25T00:26:34.452Z,7.30
2023-05-25T00:29:01.882Z,6.77
2023-05-25T00:31:29.984Z,6.80
2023-05-25T00:33:57.492Z,6.93
2023-05-25T00:36:25.601Z,6.53
2023-05-25T00:38:53.263Z,7.33
2023-05-25T00:41:21.113Z,6.40
2023-05-25T00:43:48.536Z,6.50
2023-05-25T00:46:17.150Z,6.33
2023-05-25T00:48:44.946Z,5.77
2023-05-25T00:51:13.511Z,5.50
2023-05-25T00:53:41.680Z,5.20
2023-05-25T00:56:15.174Z,6.23
2023-05-25T00:58:44.116Z,5.73
2023-05-25T01:01:12.706Z,5.53
2023-05-25T01:03:41.095Z,4.93
2023-05-25T01:06:12.204Z,4.03
2023-05-25T01:08:41.436Z,3.60
2023-05-25T01:11:12.429Z,3.93
2023-05-25T01:13:39.967Z,3.47
2023-05-25T01:16:07.556Z,2.27
2023-05-25T01:18:37.006Z,1.80
2023-05-25T01:21:13.424Z,1.50
2023-05-25T01:24:01.726Z,1.40
2023-05-25T01:26:30.695Z,1.20
2023-05-25T01:28:59.323Z,1.13
2023-05-25T01:31:26.977Z,1.30
2023-05-25T01:33:54.616Z,1.40
2023-05-25T01:36:22.297Z,0.80
2023-05-25T01:38:50.061Z,0.90
2023-05-25T01:41:17.529Z,1.00
2023-05-25T01:43:45.251Z,1.10
2023-05-25T01:46:35.636Z,0.90
2023-05-25T01:49:14.928Z,1.10
2023-05-25T01:51:42.392Z,1.00
2023-05-25T01:54:20.474Z,1.07
2023-05-25T01:56:49.696Z,1.10
2023-05-25T01:59:19.392Z,1.00
2023-05-25T02:01:47.947Z,1.20
2023-05-25T02:04:18.278Z,1.10
2023-05-25T02:06:49.201Z,1.03
2023-05-25T02:09:16.682Z,0.87
2023-05-25T02:11:44.138Z,0.70
2023-05-25T02:14:11.596Z,0.60
2023-05-25T02:16:39.068Z,1.07
2023-05-25T02:19:06.535Z,1.33
2023-05-25T02:21:36.501Z,1.13
2023-05-25T02:24:04.250Z,0.93
2023-05-25T02:26:31.644Z,0.97
2023-05-25T02:28:59.117Z,1.10
2023-05-25T02:31:28.419Z,0.60
2023-05-25T02:33:56.404Z,0.80
2023-05-25T02:36:24.052Z,0.83
2023-05-25T02:38:52.371Z,0.80
2023-05-25T02:41:24.378Z,0.70
2023-05-25T02:43:51.795Z,0.60
2023-05-25T02:46:19.777Z,0.60
2023-05-25T02:48:47.887Z,1.07
2023-05-25T02:51:15.313Z,0.60
2023-05-25T02:53:42.812Z,0.60
2023-05-25T02:56:13.043Z,0.60
2023-05-25T02:58:40.946Z,0.50
2023-05-25T03:01:10.810Z,0.60
2023-05-25T03:03:41.371Z,0.60
2023-05-25T03:06:08.791Z,0.60
2023-05-25T03:08:36.422Z,0.60
2023-05-25T03:11:03.946Z,0.50
2023-05-25T03:13:31.410Z,0.67
2023-05-25T03:15:58.945Z,0.70
2023-05-25T03:18:26.408Z,0.70
2023-05-25T03:20:53.997Z,0.83
2023-05-25T03:23:21.905Z,0.50
2023-05-25T03:25:51.598Z,0.70
2023-05-25T03:28:18.991Z,0.67
2023-05-25T03:30:46.687Z,0.80
2023-05-25T03:33:14.529Z,0.60
2023-05-25T03:35:42.441Z,0.60
2023-05-25T03:38:10.207Z,0.80
2023-05-25T03:40:37.807Z,0.70
2023-05-25T03:43:05.674Z,0.60
2023-05-25T03:45:33.047Z,0.70
2023-05-25T03:48:00.700Z,0.57
2023-05-25T03:50:28.196Z,0.53
2023-05-25T03:52:55.706Z,0.60
2023-05-25T03:55:23.167Z,0.83
2023-05-25T03:57:50.563Z,0.87
2023-05-25T04:00:17.985Z,0.70
2023-05-25T04:02:46.029Z,0.50
2023-05-25T04:05:13.582Z,0.50
2023-05-25T04:07:44.451Z,0.43
2023-05-25T04:10:12.170Z,0.73
2023-05-25T04:12:39.553Z,0.90
2023-05-25T04:15:09.680Z,0.50
2023-05-25T04:17:39.308Z,0.40
2023-05-25T04:20:09.129Z,0.27
2023-05-25T04:22:39.100Z,0.50
2023-05-25T04:25:10.556Z,0.40
2023-05-25T04:27:38.138Z,0.40
2023-05-25T04:30:05.801Z,0.47
2023-05-25T04:32:37.574Z,0.40
2023-05-25T04:35:05.792Z,0.50
2023-05-25T04:37:33.695Z,0.50
2023-05-25T04:40:01.784Z,0.50
2023-05-25T04:42:29.359Z,0.50
2023-05-25T04:44:57.004Z,0.60
2023-05-25T04:47:25.108Z,0.50
2023-05-25T04:49:52.656Z,0.50
2023-05-25T04:52:20.124Z,0.30
2023-05-25T04:54:47.601Z,0.50
2023-05-25T04:57:15.009Z,0.53
2023-05-25T04:59:45.951Z,0.50
2023-05-25T05:02:13.364Z,0.50
2023-05-25T05:04:41.575Z,0.47
2023-05-25T05:07:09.371Z,0.50
2023-05-25T05:09:37.006Z,0.50
2023-05-25T05:12:04.612Z,0.57
2023-05-25T05:14:32.093Z,0.40
2023-05-25T05:16:59.719Z,0.90
2023-05-25T05:19:27.483Z,0.67
2023-05-25T05:21:54.923Z,0.60
2023-05-25T05:24:22.409Z,0.50
2023-05-25T05:29:22.682Z,0.60
2023-05-25T05:31:50.182Z,0.60
2023-05-25T05:34:17.893Z,0.50
2023-05-25T05:36:56.532Z,0.50
2023-05-25T05:39:25.829Z,0.60
2023-05-25T05:41:53.251Z,0.50
2023-05-25T05:44:26.921Z,0.67
2023-05-25T05:47:01.016Z,0.50
2023-05-25T05:49:29.555Z,0.60
2023-05-25T05:51:57.205Z,0.80
2023-05-25T05:54:24.802Z,0.67
2023-05-25T05:56:52.480Z,0.60
2023-05-25T05:59:22.173Z,0.50
2023-05-25T06:01:49.814Z,0.57
2023-05-25T06:04:17.239Z,0.70
2023-05-25T06:06:45.518Z,0.70
2023-05-25T06:09:13.084Z,0.60
2023-05-25T06:11:40.822Z,0.60
2023-05-25T06:14:08.292Z,0.80
2023-05-25T06:16:36.709Z,0.53
2023-05-25T06:19:04.213Z,0.53
2023-05-25T06:21:31.802Z,0.50
2023-05-25T06:23:59.202Z,0.37
2023-05-25T06:26:27.394Z,0.60
2023-05-25T06:28:54.921Z,0.30
2023-05-25T06:31:22.406Z,0.50
2023-05-25T06:33:49.844Z,0.67
2023-05-25T06:36:17.278Z,0.90
2023-05-25T06:38:44.682Z,0.57
2023-05-25T06:41:15.248Z,0.73
2023-05-25T06:43:48.763Z,0.60
2023-05-25T06:46:18.607Z,0.67
2023-05-25T06:48:46.453Z,0.90
2023-05-25T06:51:14.167Z,1.37
2023-05-25T06:53:41.649Z,0.70
2023-05-25T06:56:09.209Z,0.67
2023-05-25T06:58:36.722Z,0.57
2023-05-25T07:01:04.199Z,0.47
2023-05-25T07:03:33.006Z,0.97
2023-05-25T07:06:00.567Z,1.30
2023-05-25T07:08:27.925Z,0.80
2023-05-25T07:10:55.346Z,0.67
2023-05-25T07:13:22.811Z,0.60
2023-05-25T07:15:50.576Z,0.40
2023-05-25T07:18:17.967Z,0.70
2023-05-25T07:20:45.710Z,1.27
2023-05-25T07:23:13.651Z,0.90
2023-05-25T07:25:41.560Z,0.80
2023-05-25T07:28:09.342Z,0.60
2023-05-25T07:30:36.736Z,0.80
2023-05-25T07:33:04.230Z,0.60
2023-05-25T07:35:31.827Z,0.60
2023-05-25T07:37:59.571Z,0.50
2023-05-25T07:40:27.491Z,0.73
2023-05-25T07:42:55.490Z,0.60
2023-05-25T07:45:23.132Z,0.60
2023-05-25T07:47:50.728Z,0.40
2023-05-25T07:50:18.337Z,0.60
2023-05-25T07:52:46.314Z,0.73
2023-05-25T07:55:13.854Z,0.50
2023-05-25T07:57:41.347Z,0.67
2023-05-25T08:00:11.283Z,0.37
2023-05-25T08:02:38.851Z,0.40
2023-05-25T08:05:06.735Z,0.53
2023-05-25T08:07:35.424Z,0.37
2023-05-25T08:10:03.609Z,0.43
2023-05-25T08:12:47.117Z,0.50
2023-05-25T08:15:17.025Z,0.40
2023-05-25T08:17:44.800Z,0.40
2023-05-25T08:20:13.042Z,0.50
2023-05-25T08:22:40.765Z,0.50
2023-05-25T08:25:08.482Z,0.50
2023-05-25T08:27:38.987Z,0.57
2023-05-25T08:30:07.051Z,0.50
2023-05-25T08:32:34.607Z,0.40
2023-05-25T08:35:03.605Z,0.60
2023-05-25T08:37:32.520Z,1.03
2023-05-25T08:40:02.622Z,0.50
2023-05-25T08:42:30.228Z,0.50
2023-05-25T08:44:59.093Z,0.60
2023-05-25T08:47:30.625Z,0.50
2023-05-25T08:49:58.719Z,0.50
2023-05-25T08:52:28.008Z,0.47
2023-05-25T08:54:56.283Z,0.30
2023-05-25T08:57:29.481Z,0.40
2023-05-25T09:00:13.241Z,0.32
2023-05-25T09:03:01.590Z,0.30
2023-05-25T09:05:29.160Z,0.30
2023-05-25T09:07:57.388Z,0.38
2023-05-25T09:10:26.678Z,0.60
2023-05-25T09:12:55.189Z,0.40
2023-05-25T09:15:22.759Z,0.57
2023-05-25T09:17:50.395Z,0.30
2023-05-25T09:20:19.182Z,0.30
2023-05-25T09:22:47.901Z,0.70
2023-05-25T09:25:20.365Z,1.27
2023-05-25T09:27:50.647Z,0.60
2023-05-25T09:30:18.130Z,0.43
2023-05-25T09:32:45.669Z,0.60
2023-05-25T09:35:14.134Z,0.50
2023-05-25T09:37:43.434Z,0.50
2023-05-25T09:40:11.757Z,0.40
2023-05-25T09:42:39.728Z,0.65
2023-05-25T09:45:07.625Z,0.50
2023-05-25T09:47:37.764Z,0.22
2023-05-25T09:50:05.925Z,0.50
2023-05-25T09:52:33.391Z,0.57
2023-05-25T09:55:03.859Z,0.50
2023-05-25T09:57:31.655Z,0.40
2023-05-25T09:59:59.134Z,0.40
2023-05-25T10:02:27.447Z,0.30
2023-05-25T10:04:55.040Z,0.40
2023-05-25T10:07:22.929Z,0.30
2023-05-25T10:09:53.584Z,0.47
2023-05-25T10:12:21.293Z,0.32
2023-05-25T10:14:51.117Z,0.43
2023-05-25T10:17:25.446Z,0.30
2023-05-25T10:19:58.348Z,0.30
2023-05-25T10:22:44.478Z,0.30
2023-05-25T10:25:27.099Z,0.20
2023-05-25T10:28:00.127Z,0.30
2023-05-25T10:30:28.143Z,0.43
2023-05-25T10:32:57.169Z,0.30
2023-05-25T10:35:25.134Z,0.40
2023-05-25T10:37:53.482Z,0.40
2023-05-25T10:40:24.151Z,0.55
2023-05-25T10:42:52.212Z,0.50
2023-05-25T10:45:20.067Z,0.40
2023-05-25T10:47:47.867Z,0.43
2023-05-25T10:50:27.184Z,0.50
2023-05-25T10:53:01.732Z,0.50
2023-05-25T10:55:32.782Z,0.32
2023-05-25T10:58:14.540Z,2.03
2023-05-25T11:00:42.694Z,0.60
2023-05-25T11:03:11.147Z,0.50
2023-05-25T11:05:39.874Z,0.52
2023-05-25T11:08:08.869Z,0.90
2023-05-25T11:10:39.492Z,0.70
2023-05-25T11:13:25.969Z,0.60
2023-05-25T11:16:12.006Z,0.50
2023-05-25T11:18:40.054Z,0.35
2023-05-25T11:21:19.019Z,0.47
2023-05-25T11:23:56.848Z,0.68
2023-05-25T11:26:25.268Z,0.55
2023-05-25T11:28:53.287Z,0.70
2023-05-25T11:31:23.660Z,0.70
2023-05-25T11:33:57.517Z,0.60
2023-05-25T11:36:26.048Z,0.80
2023-05-25T11:39:06.308Z,0.60
2023-05-25T11:41:39.890Z,0.60
2023-05-25T11:44:08.048Z,0.70
2023-05-25T11:46:35.757Z,0.75
2023-05-25T11:49:03.278Z,0.50
2023-05-25T11:51:31.969Z,0.80
2023-05-25T11:53:59.294Z,1.13
2023-05-25T11:56:35.214Z,0.80
2023-05-25T11:59:03.244Z,0.80
2023-05-25T12:01:32.192Z,0.90
2023-05-25T12:03:59.920Z,0.60
2023-05-25T12:06:28.563Z,0.98
2023-05-25T12:08:56.572Z,0.75
2023-05-25T12:11:31.028Z,0.90
2023-05-25T12:13:58.609Z,1.10
2023-05-25T12:16:26.585Z,0.95
2023-05-25T12:18:54.495Z,0.95
2023-05-25T12:21:22.698Z,0.70
2023-05-25T12:23:53.242Z,0.75
2023-05-25T12:26:21.766Z,0.73
2023-05-25T12:28:59.638Z,0.73
2023-05-25T12:31:29.023Z,0.60
2023-05-25T12:34:06.450Z,0.88
2023-05-25T12:36:40.801Z,0.68
2023-05-25T12:39:09.650Z,0.50
2023-05-25T12:41:54.780Z,0.85
2023-05-25T12:44:24.244Z,0.70
2023-05-25T12:46:52.726Z,0.70
2023-05-25T12:49:38.410Z,0.90
2023-05-25T12:52:07.351Z,1.10
2023-05-25T12:54:36.050Z,0.95
2023-05-25T12:57:04.051Z,1.10
2023-05-25T12:59:31.685Z,1.00
2023-05-25T13:01:59.189Z,0.93
2023-05-25T13:04:27.277Z,1.00
2023-05-25T13:06:55.969Z,1.20
2023-05-25T13:09:29.605Z,1.17
2023-05-25T13:11:57.707Z,1.13
2023-05-25T13:14:25.729Z,1.00
2023-05-25T13:16:53.872Z,1.10
2023-05-25T13:19:22.620Z,1.48
2023-05-25T13:21:50.961Z,1.27
2023-05-25T13:24:22.528Z,1.60
2023-05-25T13:26:51.186Z,1.20
2023-05-25T13:29:19.007Z,1.50
2023-05-25T13:31:47.134Z,1.38
2023-05-25T13:34:14.620Z,1.25
2023-05-25T13:36:42.241Z,1.63
2023-05-25T13:39:13.555Z,1.55
2023-05-25T13:41:41.592Z,1.55
2023-05-25T13:44:11.214Z,1.60
2023-05-25T13:46:39.079Z,1.33
2023-05-25T13:49:06.649Z,1.60
2023-05-25T13:51:35.976Z,1.40
2023-05-25T13:54:04.059Z,1.17
2023-05-25T13:56:31.808Z,1.35
2023-05-25T13:58:59.206Z,1.40
2023-05-25T14:01:28.305Z,1.10
2023-05-25T14:04:00.623Z,1.65
2023-05-25T14:06:29.137Z,1.35
2023-05-25T14:08:56.612Z,2.00
2023-05-25T14:11:28.331Z,1.60
2023-05-25T14:13:56.407Z,1.85
2023-05-25T14:16:23.997Z,1.67
2023-05-25T14:18:51.734Z,1.80
2023-05-25T14:21:19.368Z,2.50
2023-05-25T14:23:46.770Z,1.92
2023-05-25T14:26:14.323Z,2.60
2023-05-25T14:28:41.726Z,2.80
2023-05-25T14:31:09.409Z,2.33
2023-05-25T14:33:37.052Z,2.20
2023-05-25T14:36:04.604Z,2.20
2023-05-25T14:38:32.926Z,2.25
2023-05-25T14:41:00.525Z,2.65
2023-05-25T14:43:27.969Z,2.60
2023-05-25T14:45:55.483Z,2.33
2023-05-25T14:48:25.504Z,2.25
2023-05-25T14:50:53.618Z,2.17
2023-05-25T14:53:21.041Z,2.40
2023-05-25T14:55:48.484Z,2.38
2023-05-25T14:58:15.893Z,2.80
2023-05-25T15:00:43.287Z,2.33
2023-05-25T15:03:10.781Z,2.20
2023-05-25T15:05:38.255Z,3.53
2023-05-25T15:08:05.756Z,2.55
2023-05-25T15:10:33.163Z,2.50
2023-05-25T15:13:00.761Z,2.60
2023-05-25T15:15:28.244Z,2.67
2023-05-25T15:17:55.895Z,2.30
2023-05-25T15:20:23.448Z,2.13
2023-05-25T15:22:53.858Z,2.22
2023-05-25T15:25:35.152Z,2.35
2023-05-25T15:28:03.267Z,2.55
2023-05-25T15:30:30.846Z,2.25
2023-05-25T15:32:58.333Z,2.30
2023-05-25T15:35:32.269Z,2.10
2023-05-25T15:38:00.163Z,2.20
2023-05-25T15:40:28.157Z,3.35
2023-05-25T15:42:55.609Z,3.10
2023-05-25T15:45:23.056Z,2.05
2023-05-25T15:47:50.740Z,2.30
2023-05-25T15:50:18.224Z,2.80
2023-05-25T15:52:46.950Z,2.50
2023-05-25T15:55:14.557Z,2.35
2023-05-25T15:57:42.011Z,2.03
2023-05-25T16:00:09.906Z,2.45
2023-05-25T16:02:37.440Z,2.00
2023-05-25T16:05:07.175Z,2.22
2023-05-25T16:07:34.692Z,2.20
2023-05-25T16:10:02.222Z,2.40
2023-05-25T16:12:29.978Z,2.55
2023-05-25T16:14:57.489Z,2.67
2023-05-25T16:17:25.290Z,2.30
2023-05-25T16:19:52.773Z,2.55
2023-05-25T16:22:20.290Z,2.55
2023-05-25T16:24:47.805Z,2.05
2023-05-25T16:27:15.467Z,2.58
2023-05-25T16:29:43.093Z,2.45
2023-05-25T16:32:10.716Z,2.83
2023-05-25T16:34:38.407Z,2.40
2023-05-25T16:37:05.976Z,2.72
2023-05-25T16:39:33.532Z,2.30
2023-05-25T16:42:01.191Z,2.80
2023-05-25T16:44:28.737Z,1.92
2023-05-25T16:46:56.226Z,2.75
2023-05-25T16:49:23.646Z,2.38
2023-05-25T16:51:51.045Z,2.25
2023-05-25T16:54:18.461Z,2.63
2023-05-25T16:56:46.527Z,2.92
2023-05-25T16:59:14.324Z,2.10
2023-05-25T17:01:41.897Z,2.30
2023-05-25T17:04:09.552Z,2.35
2023-05-25T17:06:37.682Z,2.28
2023-05-25T17:09:05.127Z,2.67
2023-05-25T17:11:32.523Z,2.35
2023-05-25T17:13:59.961Z,2.35
2023-05-25T17:16:27.326Z,2.30
2023-05-25T17:18:54.749Z,2.22
2023-05-25T17:21:22.124Z,1.90
2023-05-25T17:23:50.048Z,2.15
2023-05-25T17:26:17.484Z,2.38
2023-05-25T17:28:44.964Z,1.95
2023-05-25T17:31:12.417Z,2.05
2023-05-25T17:33:40.041Z,2.63
2023-05-25T17:36:07.685Z,2.38
2023-05-25T17:38:37.252Z,2.63
2023-05-25T17:41:04.734Z,2.50
2023-05-25T17:43:32.225Z,1.70
2023-05-25T17:45:59.849Z,2.30
2023-05-25T17:48:27.530Z,2.05
2023-05-25T17:50:54.974Z,2.75
2023-05-25T17:53:22.422Z,2.47
2023-05-25T17:55:49.926Z,2.35
2023-05-25T17:58:17.332Z,2.58
2023-05-25T18:00:44.907Z,2.13
2023-05-25T18:03:12.615Z,2.13
2023-05-25T18:05:40.208Z,3.05
2023-05-25T18:08:07.631Z,2.10
2023-05-25T18:10:35.047Z,2.40
2023-05-25T18:13:02.533Z,2.08
2023-05-25T18:15:30.184Z,2.10
2023-05-25T18:17:57.641Z,2.65
2023-05-25T18:20:25.319Z,2.30
2023-05-25T18:22:52.980Z,2.40
2023-05-25T18:25:20.489Z,2.30
2023-05-25T18:27:48.096Z,2.70
2023-05-25T18:30:16.166Z,2.50
2023-05-25T18:32:43.661Z,2.80
2023-05-25T18:35:11.287Z,2.45
2023-05-25T18:37:41.977Z,2.38
2023-05-25T18:40:11.899Z,2.20
2023-05-25T18:42:39.704Z,2.50
2023-05-25T18:45:07.505Z,4.20
2023-05-25T18:47:35.120Z,2.03
2023-05-25T18:50:03.330Z,2.00
2023-05-25T18:52:30.855Z,2.67
2023-05-25T18:54:58.298Z,2.60
2023-05-25T18:57:25.700Z,2.42
2023-05-25T18:59:56.214Z,2.03
2023-05-25T19:02:23.625Z,2.20
2023-05-25T19:04:51.169Z,2.45
2023-05-25T19:07:18.617Z,2.42
2023-05-25T19:09:48.249Z,2.28
2023-05-25T19:12:16.046Z,2.45
2023-05-25T19:14:43.570Z,2.63
2023-05-25T19:17:11.066Z,2.30
2023-05-25T19:19:38.480Z,1.85
2023-05-25T19:22:06.567Z,2.60
2023-05-25T19:24:34.064Z,2.40
2023-05-25T19:27:01.926Z,2.17
2023-05-25T19:29:29.321Z,2.47
2023-05-25T19:31:56.849Z,2.33
2023-05-25T19:34:24.365Z,2.40
2023-05-25T19:37:00.057Z,2.17
2023-05-25T19:39:38.005Z,2.33
2023-05-25T19:42:05.415Z,2.47
2023-05-25T19:44:32.768Z,1.90
2023-05-25T19:47:00.742Z,2.10
2023-05-25T19:49:29.337Z,2.20
2023-05-25T19:51:56.814Z,2.58
2023-05-25T19:54:24.205Z,2.55
2023-05-25T19:56:51.817Z,2.78
2023-05-25T19:59:21.495Z,2.45
2023-05-25T20:01:48.958Z,2.00
2023-05-25T20:04:16.443Z,2.05
2023-05-25T20:06:43.887Z,2.92
2023-05-25T20:09:12.825Z,2.78
2023-05-25T20:11:40.612Z,3.40
2023-05-25T20:14:08.742Z,2.20
2023-05-25T20:16:36.350Z,2.35
2023-05-25T20:19:07.555Z,2.40
2023-05-25T20:21:35.850Z,2.60
2023-05-25T20:24:05.921Z,2.30
2023-05-25T20:26:34.216Z,2.42
2023-05-25T20:29:01.766Z,2.42
2023-05-25T20:31:29.252Z,2.63
2023-05-25T20:33:56.722Z,2.40
2023-05-25T20:36:24.161Z,2.55
2023-05-25T20:38:51.571Z,2.60
2023-05-25T20:41:19.087Z,2.40
2023-05-25T20:43:46.652Z,2.10
2023-05-25T20:46:14.257Z,2.47
2023-05-25T20:48:41.645Z,2.15
2023-05-25T20:51:11.642Z,2.27
2023-05-25T20:53:39.165Z,2.42
2023-05-25T20:56:09.580Z,2.00
2023-05-25T20:58:41.249Z,2.15
2023-05-25T21:01:09.201Z,2.40
2023-05-25T21:03:36.899Z,2.00
2023-05-25T21:06:04.432Z,2.33
2023-05-25T21:08:32.367Z,2.50
2023-05-25T21:10:59.807Z,2.20
2023-05-25T21:13:27.289Z,2.90
2023-05-25T21:15:54.796Z,3.10
2023-05-25T21:18:22.339Z,2.83
2023-05-25T21:20:49.924Z,3.03
2023-05-25T21:23:17.374Z,2.80
2023-05-25T21:25:45.724Z,2.77
2023-05-25T21:28:13.371Z,2.50
2023-05-25T21:30:40.849Z,2.30
2023-05-25T21:33:08.576Z,2.00
2023-05-25T21:35:36.014Z,2.30
2023-05-25T21:38:03.575Z,2.97
2023-05-25T21:40:31.052Z,2.07
2023-05-25T21:42:58.647Z,1.83
2023-05-25T21:45:26.330Z,2.17
2023-05-25T21:47:53.825Z,2.17
2023-05-25T21:50:21.413Z,2.07
2023-05-25T21:52:49.014Z,2.43
2023-05-25T21:55:16.527Z,2.47
2023-05-25T21:57:43.968Z,2.27
2023-05-25T22:00:12.895Z,2.07
2023-05-25T22:02:40.546Z,1.77
2023-05-25T22:05:08.295Z,2.23
2023-05-25T22:07:35.901Z,2.80
2023-05-25T22:10:03.967Z,2.57
2023-05-25T22:12:31.386Z,2.30
2023-05-25T22:14:58.767Z,2.27
2023-05-25T22:17:26.269Z,2.60
2023-05-25T22:20:06.537Z,2.17
2023-05-25T22:22:37.520Z,2.23
2023-05-25T22:25:05.335Z,2.30
2023-05-25T22:27:33.551Z,2.57
2023-05-25T22:30:01.813Z,2.60
2023-05-25T22:32:29.373Z,2.00
2023-05-25T22:34:57.001Z,2.10
2023-05-25T22:37:24.482Z,2.13
2023-05-25T22:39:51.939Z,2.20
2023-05-25T22:42:19.420Z,2.47
2023-05-25T22:44:46.841Z,1.90
2023-05-25T22:47:14.207Z,2.70
2023-05-25T22:49:43.449Z,1.90
2023-05-25T22:52:12.576Z,3.00
2023-05-25T22:54:40.361Z,2.70
2023-05-25T22:57:09.239Z,2.00
2023-05-25T22:59:36.885Z,2.27
2023-05-25T23:02:04.807Z,2.07
2023-05-25T23:04:32.446Z,1.80
2023-05-25T23:06:59.960Z,2.83
2023-05-25T23:09:27.484Z,2.20
2023-05-25T23:11:54.849Z,2.43
2023-05-25T23:14:22.327Z,2.20
2023-05-25T23:16:49.712Z,2.03
2023-05-25T23:19:18.105Z,2.70
2023-05-25T23:21:45.540Z,2.00
2023-05-25T23:24:12.928Z,2.00
2023-05-25T23:26:40.283Z,2.17
2023-05-25T23:29:07.789Z,2.50
2023-05-25T23:31:35.351Z,2.23
2023-05-25T23:34:02.844Z,2.20
2023-05-25T23:36:30.285Z,2.27
2023-05-25T23:38:57.608Z,2.50
2023-05-25T23:41:25.367Z,2.13
2023-05-25T23:43:52.803Z,2.07
2023-05-25T23:46:20.264Z,2.37
2023-05-25T23:48:47.886Z,2.30
2023-05-25T23:51:15.324Z,2.37
2023-05-25T23:53:43.406Z,2.07
2023-05-25T23:56:13.883Z,1.97
2023-05-25T23:58:42.802Z,2.17
